F/V Billabong — FHGI — position and weather

sailwx.info

Track history (hours):
 
Tides and Currents Weather Stations Pressure Air Temp Water Temp Dewpoint Dewpoint Depression Visibility Wind Speed Wind Dir Waves Ship Positions

F/V Billabong

Last reported at 2017-Nov-18 01:21 UTC. Time now 2017-Nov-19 05:03 UTC.
Position N 47°44' W 003°22'.

Length 16 m.

Type: Fishing. MMSI: 228380000.

Date/timePositionNaut miles runAvg speedWind from/ knotsBaromVisibWave heightAir tempDewpointWater temp
2017-Nov-18 01:21N 47°44' W 003°22'2 6.7
2017-Nov-18 01:01N 47°42' W 003°22'4 8.5
2017-Nov-18 00:31N 47°37' W 003°23'4 8.3
2017-Nov-18 00:01N 47°34' W 003°27'4 8.2
2017-Nov-17 23:31N 47°31' W 003°32'2 3.0
2017-Nov-17 23:01N 47°30' W 003°32'2 4.0
2017-Nov-17 22:31N 47°28' W 003°32'2 3.7
2017-Nov-17 22:01N 47°26' W 003°31'2 4.0
2017-Nov-17 21:30N 47°25' W 003°29'2 3.9
2017-Nov-17 21:01N 47°23' W 003°29'2 3.7
2017-Nov-17 20:31N 47°21' W 003°29'2 4.1
2017-Nov-17 20:01N 47°20' W 003°26'12 2.4
2017-Nov-17 14:57N 47°15' W 003°10'0 0.3
2017-Nov-17 14:10N 47°15' W 003°10'1 3.7
2017-Nov-17 14:00N 47°14' W 003°09'9 1.2
2017-Nov-17 06:30N 47°18' W 003°21'8 7.9
2017-Nov-17 05:29N 47°26' W 003°22'4 8.4
2017-Nov-17 05:00N 47°30' W 003°22'4 8.4
2017-Nov-17 04:30N 47°34' W 003°22'4 8.5
2017-Nov-17 04:00N 47°39' W 003°22'4 8.4
2017-Nov-17 03:30N 47°43' W 003°22'1 1.9
2017-Nov-17 03:00N 47°44' W 003°22'0 0.3
2017-Nov-17 02:30N 47°44' W 003°22'0 0.0
2017-Nov-17 02:00N 47°44' W 003°22'3 5.9
2017-Nov-17 01:30N 47°41' W 003°22'5 9.8
2017-Nov-17 01:00N 47°36' W 003°22'4 7.9
2017-Nov-17 00:30N 47°32' W 003°22'4 8.9
2017-Nov-17 00:00N 47°28' W 003°22'5 9.0
2017-Nov-16 23:30N 47°23' W 003°22'12 0.3
2017-Nov-15 04:43N 47°11' W 003°24'2 8.7
2017-Nov-15 04:30N 47°13' W 003°24'4 8.8
2017-Nov-15 04:00N 47°18' W 003°24'4 9.0
2017-Nov-15 03:30N 47°22' W 003°23'4 8.8
2017-Nov-15 03:01N 47°26' W 003°23'4 8.7
2017-Nov-15 02:30N 47°31' W 003°23'4 8.7
2017-Nov-15 02:00N 47°35' W 003°23'4 8.8
2017-Nov-15 01:31N 47°39' W 003°22'4 7.8
2017-Nov-15 01:00N 47°43' W 003°22'0 0.0
2017-Nov-14 17:00N 47°44' W 003°22'0 0.0
2017-Nov-14 16:30N 47°44' W 003°22'0 0.0
2017-Nov-14 10:24N 47°44' W 003°22'0 0.0
2017-Nov-14 09:57N 47°44' W 003°22'0 0.0
2017-Nov-14 03:15N 47°44' W 003°22'0 0.4
2017-Nov-14 03:00N 47°44' W 003°22'0 0.0
2017-Nov-14 02:30N 47°44' W 003°22'4 7.9
2017-Nov-14 02:00N 47°40' W 003°22'4 8.8
2017-Nov-14 01:30N 47°35' W 003°23'4 9.0
2017-Nov-14 01:00N 47°31' W 003°23'4 8.8
2017-Nov-14 00:30N 47°27' W 003°24'5 8.9
2017-Nov-14 00:00N 47°22' W 003°25'16 0.7
2017-Nov-13 02:00N 47°38' W 003°22'4 8.4
2017-Nov-13 01:30N 47°42' W 003°22'2 3.9
2017-Nov-13 01:00N 47°44' W 003°22'1 0.0
2017-Nov-10 23:32N 47°43' W 003°22'0 8.0
2017-Nov-10 23:30N 47°43' W 003°22'4 8.2
2017-Nov-10 23:00N 47°39' W 003°23'4 8.1
2017-Nov-10 22:30N 47°35' W 003°25'4 7.5
2017-Nov-10 22:00N 47°32' W 003°29'20 0.5
2017-Nov-09 07:08N 47°12' W 003°24'1 8.9
2017-Nov-09 07:00N 47°13' W 003°24'4 8.9
2017-Nov-09 06:30N 47°18' W 003°23'5 9.0
2017-Nov-09 06:00N 47°22' W 003°23'5 9.1
2017-Nov-09 05:30N 47°27' W 003°23'5 9.2
2017-Nov-09 05:00N 47°31' W 003°24'4 8.7
2017-Nov-09 04:30N 47°36' W 003°23'5 9.1
2017-Nov-09 04:00N 47°40' W 003°22'29 1.1
2017-Nov-08 02:21N 47°12' W 003°22'0 1.4
2017-Nov-08 02:01N 47°12' W 003°21'2 3.1
2017-Nov-08 01:30N 47°13' W 003°19'  
Track history (hours):
 
Tides and Currents Weather Stations Pressure Air Temp Water Temp Dewpoint Dewpoint Depression Visibility Wind Speed Wind Dir Waves Ship Positions

F/V Billabong

Last reported at 2017-Nov-18 01:21 UTC. Time now 2017-Nov-19 05:03 UTC.
Position N 47°44' W 003°22'.

Length 16 m.

Type: Fishing. MMSI: 228380000.

Date/timePositionNaut miles runAvg speedWind from/ knotsBaromVisibWave heightAir tempDewpointWater temp
2017-Nov-18 01:21N 47°44' W 003°22'2 6.7
2017-Nov-18 01:01N 47°42' W 003°22'4 8.5
2017-Nov-18 00:31N 47°37' W 003°23'4 8.3
2017-Nov-18 00:01N 47°34' W 003°27'4 8.2
2017-Nov-17 23:31N 47°31' W 003°32'2 3.0
2017-Nov-17 23:01N 47°30' W 003°32'2 4.0
2017-Nov-17 22:31N 47°28' W 003°32'2 3.7
2017-Nov-17 22:01N 47°26' W 003°31'2 4.0
2017-Nov-17 21:30N 47°25' W 003°29'2 3.9
2017-Nov-17 21:01N 47°23' W 003°29'2 3.7
2017-Nov-17 20:31N 47°21' W 003°29'2 4.1
2017-Nov-17 20:01N 47°20' W 003°26'12 2.4
2017-Nov-17 14:57N 47°15' W 003°10'0 0.3
2017-Nov-17 14:10N 47°15' W 003°10'1 3.7
2017-Nov-17 14:00N 47°14' W 003°09'9 1.2
2017-Nov-17 06:30N 47°18' W 003°21'8 7.9
2017-Nov-17 05:29N 47°26' W 003°22'4 8.4
2017-Nov-17 05:00N 47°30' W 003°22'4 8.4
2017-Nov-17 04:30N 47°34' W 003°22'4 8.5
2017-Nov-17 04:00N 47°39' W 003°22'4 8.4
2017-Nov-17 03:30N 47°43' W 003°22'1 1.9
2017-Nov-17 03:00N 47°44' W 003°22'0 0.3
2017-Nov-17 02:30N 47°44' W 003°22'0 0.0
2017-Nov-17 02:00N 47°44' W 003°22'3 5.9
2017-Nov-17 01:30N 47°41' W 003°22'5 9.8
2017-Nov-17 01:00N 47°36' W 003°22'4 7.9
2017-Nov-17 00:30N 47°32' W 003°22'4 8.9
2017-Nov-17 00:00N 47°28' W 003°22'5 9.0
2017-Nov-16 23:30N 47°23' W 003°22'12 0.3
2017-Nov-15 04:43N 47°11' W 003°24'2 8.7
2017-Nov-15 04:30N 47°13' W 003°24'4 8.8
2017-Nov-15 04:00N 47°18' W 003°24'4 9.0
2017-Nov-15 03:30N 47°22' W 003°23'4 8.8
2017-Nov-15 03:01N 47°26' W 003°23'4 8.7
2017-Nov-15 02:30N 47°31' W 003°23'4 8.7
2017-Nov-15 02:00N 47°35' W 003°23'4 8.8
2017-Nov-15 01:31N 47°39' W 003°22'4 7.8
2017-Nov-15 01:00N 47°43' W 003°22'0 0.0
2017-Nov-14 17:00N 47°44' W 003°22'0 0.0
2017-Nov-14 16:30N 47°44' W 003°22'0 0.0
2017-Nov-14 10:24N 47°44' W 003°22'0 0.0
2017-Nov-14 09:57N 47°44' W 003°22'0 0.0
2017-Nov-14 03:15N 47°44' W 003°22'0 0.4
2017-Nov-14 03:00N 47°44' W 003°22'0 0.0
2017-Nov-14 02:30N 47°44' W 003°22'4 7.9
2017-Nov-14 02:00N 47°40' W 003°22'4 8.8
2017-Nov-14 01:30N 47°35' W 003°23'4 9.0
2017-Nov-14 01:00N 47°31' W 003°23'4 8.8
2017-Nov-14 00:30N 47°27' W 003°24'5 8.9
2017-Nov-14 00:00N 47°22' W 003°25'16 0.7
2017-Nov-13 02:00N 47°38' W 003°22'4 8.4
2017-Nov-13 01:30N 47°42' W 003°22'2 3.9
2017-Nov-13 01:00N 47°44' W 003°22'1 0.0
2017-Nov-10 23:32N 47°43' W 003°22'0 8.0
2017-Nov-10 23:30N 47°43' W 003°22'4 8.2
2017-Nov-10 23:00N 47°39' W 003°23'4 8.1
2017-Nov-10 22:30N 47°35' W 003°25'4 7.5
2017-Nov-10 22:00N 47°32' W 003°29'20 0.5
2017-Nov-09 07:08N 47°12' W 003°24'1 8.9
2017-Nov-09 07:00N 47°13' W 003°24'4 8.9
2017-Nov-09 06:30N 47°18' W 003°23'5 9.0
2017-Nov-09 06:00N 47°22' W 003°23'5 9.1
2017-Nov-09 05:30N 47°27' W 003°23'5 9.2
2017-Nov-09 05:00N 47°31' W 003°24'4 8.7
2017-Nov-09 04:30N 47°36' W 003°23'5 9.1
2017-Nov-09 04:00N 47°40' W 003°22'29 1.1
2017-Nov-08 02:21N 47°12' W 003°22'0 1.4
2017-Nov-08 02:01N 47°12' W 003°21'2 3.1
2017-Nov-08 01:30N 47°13' W 003°19'  

Dump ship's entire track history